GLO1787 SBEG-SBBR
Flight info
| Callsign | GLO1787 |
|---|---|
| Flight time | 2h 35m |
| Altitude | 37000 |
| Route | GIKVI UZ6 EKEBA DCT ELISA |
| Aircraft | B738/M-SDFGIKLORWXY/LB1 |
Departure
| Time | 2026-04-21 00:23 |
|---|---|
| Airport | Eduardo Gomes International Airport (SBEG) |
Arrival
| Time | 2026-04-21 02:59 |
|---|---|
| Airport | Presidente Juscelino Kubitschek International Airport (SBBR) |
| Time | Latitude | Longitude | Altitude | Speed | Heading |
|---|---|---|---|---|---|
| 2026-04-21 00:01 | -3.03272 | -60.04581 | 269 ft | 0 kts | 356° |
| 2026-04-21 00:15 | -3.03281 | -60.04581 | 269 ft | 4 kts | 355° |
| 2026-04-21 00:15 | -3.03308 | -60.04577 | 269 ft | 4 kts | 347° |
| 2026-04-21 00:15 | -3.03333 | -60.04569 | 269 ft | 4 kts | 331° |
| 2026-04-21 00:16 | -3.03351 | -60.04553 | 269 ft | 4 kts | 284° |
| 2026-04-21 00:16 | -3.03352 | -60.04541 | 269 ft | 1 kts | 265° |
| 2026-04-21 00:16 | -3.03352 | -60.04540 | 269 ft | 0 kts | 265° |
| 2026-04-21 00:18 | -3.03352 | -60.04541 | 269 ft | 0 kts | 265° |
| 2026-04-21 00:18 | -3.03353 | -60.04553 | 269 ft | 3 kts | 265° |
| 2026-04-21 00:18 | -3.03355 | -60.04589 | 269 ft | 7 kts | 269° |
| 2026-04-21 00:18 | -3.03354 | -60.04648 | 269 ft | 10 kts | 271° |
| 2026-04-21 00:19 | -3.03359 | -60.04728 | 269 ft | 13 kts | 258° |
| 2026-04-21 00:19 | -3.03401 | -60.04815 | 269 ft | 15 kts | 232° |
| 2026-04-21 00:19 | -3.03486 | -60.04888 | 269 ft | 17 kts | 216° |
| 2026-04-21 00:19 | -3.03569 | -60.04984 | 269 ft | 19 kts | 242° |
| 2026-04-21 00:20 | -3.03610 | -60.05117 | 269 ft | 21 kts | 255° |
| 2026-04-21 00:20 | -3.03650 | -60.05264 | 269 ft | 23 kts | 255° |
| 2026-04-21 00:20 | -3.03683 | -60.05423 | 269 ft | 24 kts | 263° |
| 2026-04-21 00:20 | -3.03691 | -60.05535 | 269 ft | 25 kts | 270° |
| 2026-04-21 00:21 | -3.03690 | -60.05754 | 269 ft | 23 kts | 270° |
| 2026-04-21 00:21 | -3.03691 | -60.05908 | 269 ft | 22 kts | 270° |
| 2026-04-21 00:21 | -3.03690 | -60.06060 | 269 ft | 21 kts | 270° |
| 2026-04-21 00:21 | -3.03751 | -60.06170 | 269 ft | 17 kts | 200° |
| 2026-04-21 00:22 | -3.03830 | -60.06167 | 270 ft | 17 kts | 150° |
| 2026-04-21 00:22 | -3.03858 | -60.06072 | 270 ft | 14 kts | 88° |
| 2026-04-21 00:22 | -3.03858 | -60.05872 | 269 ft | 61 kts | 90° |
| 2026-04-21 00:22 | -3.03859 | -60.05206 | 268 ft | 129 kts | 90° |
| 2026-04-21 00:23 | -3.03871 | -60.04135 | 338 ft | 177 kts | 90° |
| 2026-04-21 00:23 | -3.03899 | -60.02896 | 1155 ft | 174 kts | 90° |
| 2026-04-21 00:23 | -3.03917 | -60.01694 | 2031 ft | 173 kts | 90° |
| 2026-04-21 00:23 | -3.04093 | -60.00427 | 2440 ft | 203 kts | 116° |
| 2026-04-21 00:24 | -3.05153 | -59.99392 | 2681 ft | 229 kts | 147° |
| 2026-04-21 00:24 | -3.06590 | -59.98517 | 2884 ft | 254 kts | 146° |
| 2026-04-21 00:24 | -3.08047 | -59.97430 | 3403 ft | 267 kts | 140° |
| 2026-04-21 00:24 | -3.09477 | -59.96239 | 4255 ft | 268 kts | 139° |
| 2026-04-21 00:25 | -3.10905 | -59.95029 | 5111 ft | 270 kts | 139° |
| 2026-04-21 00:25 | -3.12346 | -59.93809 | 5917 ft | 273 kts | 139° |
| 2026-04-21 00:25 | -3.13790 | -59.92593 | 6701 ft | 276 kts | 139° |
| 2026-04-21 00:25 | -3.15269 | -59.91353 | 7440 ft | 279 kts | 139° |
| 2026-04-21 00:26 | -3.16791 | -59.90082 | 8165 ft | 284 kts | 140° |
| 2026-04-21 00:26 | -3.18300 | -59.88826 | 8900 ft | 287 kts | 140° |
| 2026-04-21 00:26 | -3.19842 | -59.87545 | 9642 ft | 291 kts | 140° |
| 2026-04-21 00:26 | -3.21412 | -59.86243 | 10268 ft | 298 kts | 140° |
| 2026-04-21 00:27 | -3.23070 | -59.84869 | 10445 ft | 321 kts | 140° |
| 2026-04-21 00:27 | -3.24852 | -59.83394 | 10610 ft | 343 kts | 140° |
| 2026-04-21 00:27 | -3.26729 | -59.81841 | 10967 ft | 355 kts | 140° |
| 2026-04-21 00:27 | -3.28647 | -59.80254 | 11524 ft | 360 kts | 141° |
| 2026-04-21 00:28 | -3.30578 | -59.78657 | 12166 ft | 362 kts | 141° |
| 2026-04-21 00:28 | -3.32535 | -59.77039 | 12772 ft | 366 kts | 141° |
| 2026-04-21 00:28 | -3.34506 | -59.75409 | 13353 ft | 370 kts | 141° |
| 2026-04-21 00:28 | -3.36508 | -59.73753 | 13911 ft | 374 kts | 141° |
| 2026-04-21 00:29 | -3.38525 | -59.72086 | 14475 ft | 376 kts | 141° |
| 2026-04-21 00:29 | -3.40550 | -59.70411 | 15049 ft | 378 kts | 141° |
| 2026-04-21 00:29 | -3.42584 | -59.68728 | 15605 ft | 380 kts | 141° |
| 2026-04-21 00:29 | -3.44629 | -59.67037 | 16145 ft | 383 kts | 140° |
| 2026-04-21 00:30 | -3.46688 | -59.65334 | 16686 ft | 385 kts | 140° |
| 2026-04-21 00:30 | -3.48762 | -59.63618 | 17215 ft | 388 kts | 140° |
| 2026-04-21 00:30 | -3.50851 | -59.61889 | 17714 ft | 391 kts | 140° |
| 2026-04-21 00:30 | -3.52952 | -59.60151 | 18227 ft | 393 kts | 140° |
| 2026-04-21 00:31 | -3.55076 | -59.58394 | 18655 ft | 396 kts | 140° |
| 2026-04-21 00:31 | -3.57204 | -59.56633 | 19080 ft | 399 kts | 140° |
| 2026-04-21 00:31 | -3.59346 | -59.54860 | 19496 ft | 401 kts | 140° |
| 2026-04-21 00:31 | -3.61505 | -59.53074 | 19928 ft | 403 kts | 140° |
| 2026-04-21 00:32 | -3.63643 | -59.51304 | 20336 ft | 406 kts | 140° |
| 2026-04-21 00:32 | -3.65829 | -59.49495 | 20760 ft | 408 kts | 140° |
| 2026-04-21 00:32 | -3.68020 | -59.47682 | 21167 ft | 410 kts | 140° |
| 2026-04-21 00:32 | -3.70225 | -59.45857 | 21548 ft | 413 kts | 140° |
| 2026-04-21 00:33 | -3.72446 | -59.44019 | 21938 ft | 415 kts | 140° |
| 2026-04-21 00:33 | -3.74682 | -59.42167 | 22322 ft | 417 kts | 140° |
| 2026-04-21 00:33 | -3.76917 | -59.40317 | 22694 ft | 420 kts | 140° |
| 2026-04-21 00:33 | -3.79177 | -59.38445 | 23061 ft | 422 kts | 139° |
| 2026-04-21 00:34 | -3.81442 | -59.36570 | 23422 ft | 424 kts | 139° |
| 2026-04-21 00:34 | -3.83731 | -59.34674 | 23721 ft | 426 kts | 139° |
| 2026-04-21 00:34 | -3.86026 | -59.32774 | 24015 ft | 428 kts | 139° |
| 2026-04-21 00:34 | -3.88332 | -59.30864 | 24307 ft | 430 kts | 139° |
| 2026-04-21 00:35 | -3.90616 | -59.28972 | 24589 ft | 432 kts | 139° |
| 2026-04-21 00:35 | -3.92935 | -59.27051 | 24870 ft | 434 kts | 139° |
| 2026-04-21 00:35 | -3.95265 | -59.25122 | 25154 ft | 435 kts | 139° |
| 2026-04-21 00:35 | -3.97610 | -59.23178 | 25438 ft | 437 kts | 139° |
| 2026-04-21 00:36 | -3.99954 | -59.21236 | 25708 ft | 439 kts | 139° |
| 2026-04-21 00:36 | -4.02313 | -59.19282 | 25981 ft | 440 kts | 139° |
| 2026-04-21 00:36 | -4.04673 | -59.17326 | 26245 ft | 442 kts | 139° |
| 2026-04-21 00:36 | -4.07051 | -59.15356 | 26505 ft | 444 kts | 139° |
| 2026-04-21 00:37 | -4.09438 | -59.13377 | 26759 ft | 446 kts | 139° |
| 2026-04-21 00:37 | -4.11834 | -59.11392 | 27023 ft | 447 kts | 139° |
| 2026-04-21 00:37 | -4.14238 | -59.09399 | 27276 ft | 449 kts | 139° |
| 2026-04-21 00:37 | -4.16644 | -59.07404 | 27517 ft | 450 kts | 139° |
| 2026-04-21 00:38 | -4.19033 | -59.05424 | 27756 ft | 452 kts | 139° |
| 2026-04-21 00:38 | -4.21456 | -59.03415 | 27990 ft | 454 kts | 139° |
| 2026-04-21 00:38 | -4.23894 | -59.01394 | 28214 ft | 455 kts | 139° |
| 2026-04-21 00:38 | -4.26335 | -58.99369 | 28436 ft | 457 kts | 139° |
| 2026-04-21 00:39 | -4.28791 | -58.97332 | 28658 ft | 459 kts | 139° |
| 2026-04-21 00:39 | -4.31258 | -58.95286 | 28880 ft | 460 kts | 139° |
| 2026-04-21 00:39 | -4.33732 | -58.93234 | 29094 ft | 461 kts | 139° |
| 2026-04-21 00:39 | -4.36203 | -58.91184 | 29302 ft | 463 kts | 139° |
| 2026-04-21 00:40 | -4.38690 | -58.89120 | 29502 ft | 465 kts | 139° |
| 2026-04-21 00:40 | -4.41185 | -58.87050 | 29729 ft | 465 kts | 139° |
| 2026-04-21 00:40 | -4.43674 | -58.84985 | 30015 ft | 465 kts | 139° |
| 2026-04-21 00:40 | -4.46161 | -58.82921 | 30297 ft | 463 kts | 139° |
| 2026-04-21 00:41 | -4.48639 | -58.80865 | 30573 ft | 462 kts | 139° |
| 2026-04-21 00:41 | -4.51087 | -58.78832 | 30818 ft | 462 kts | 139° |
| 2026-04-21 00:41 | -4.53557 | -58.76781 | 31058 ft | 461 kts | 139° |
| 2026-04-21 00:41 | -4.56027 | -58.74730 | 31318 ft | 461 kts | 138° |
| 2026-04-21 00:42 | -4.58444 | -58.72632 | 31609 ft | 459 kts | 137° |
| 2026-04-21 00:42 | -4.60814 | -58.70483 | 31894 ft | 458 kts | 136° |
| 2026-04-21 00:42 | -4.63154 | -58.68324 | 32152 ft | 458 kts | 136° |
| 2026-04-21 00:42 | -4.65494 | -58.66159 | 32427 ft | 457 kts | 136° |
| 2026-04-21 00:43 | -4.67828 | -58.64009 | 32719 ft | 456 kts | 136° |
| 2026-04-21 00:43 | -4.70167 | -58.61865 | 33012 ft | 455 kts | 136° |
| 2026-04-21 00:43 | -4.72508 | -58.59729 | 33312 ft | 454 kts | 136° |
| 2026-04-21 00:43 | -4.74842 | -58.57604 | 33597 ft | 453 kts | 136° |
| 2026-04-21 00:44 | -4.77173 | -58.55484 | 33876 ft | 452 kts | 136° |
| 2026-04-21 00:44 | -4.79499 | -58.53369 | 34126 ft | 451 kts | 136° |
| 2026-04-21 00:44 | -4.81821 | -58.51259 | 34373 ft | 450 kts | 136° |
| 2026-04-21 00:45 | -4.86440 | -58.47058 | 34890 ft | 447 kts | 136° |
| 2026-04-21 00:45 | -4.88712 | -58.44991 | 35141 ft | 446 kts | 136° |
| 2026-04-21 00:45 | -4.91012 | -58.42898 | 35384 ft | 445 kts | 136° |
| 2026-04-21 00:45 | -4.93298 | -58.40817 | 35605 ft | 444 kts | 136° |
| 2026-04-21 00:46 | -4.95585 | -58.38736 | 35840 ft | 443 kts | 136° |
| 2026-04-21 00:46 | -4.97866 | -58.36659 | 36064 ft | 442 kts | 136° |
| 2026-04-21 00:46 | -5.00146 | -58.34584 | 36289 ft | 441 kts | 136° |
| 2026-04-21 00:46 | -5.02413 | -58.32519 | 36511 ft | 440 kts | 136° |
| 2026-04-21 00:47 | -5.04673 | -58.30461 | 36747 ft | 439 kts | 136° |
| 2026-04-21 00:47 | -5.06934 | -58.28403 | 36939 ft | 438 kts | 136° |
| 2026-04-21 00:47 | -5.11475 | -58.24266 | 36936 ft | 441 kts | 136° |
| 2026-04-21 00:48 | -5.15993 | -58.20150 | 36933 ft | 437 kts | 136° |
| 2026-04-21 00:48 | -5.20481 | -58.16060 | 36936 ft | 434 kts | 136° |
| 2026-04-21 00:49 | -5.24949 | -58.12004 | 36939 ft | 432 kts | 136° |
| 2026-04-21 00:49 | -5.29419 | -58.07986 | 36940 ft | 431 kts | 136° |
| 2026-04-21 00:50 | -5.33853 | -58.04002 | 36943 ft | 431 kts | 136° |
| 2026-04-21 00:50 | -5.38320 | -57.99983 | 36948 ft | 432 kts | 136° |
| 2026-04-21 00:51 | -5.42806 | -57.95942 | 36945 ft | 434 kts | 136° |
| 2026-04-21 00:51 | -5.47315 | -57.91879 | 36944 ft | 436 kts | 136° |
| 2026-04-21 00:52 | -5.51853 | -57.87789 | 36947 ft | 438 kts | 136° |
| 2026-04-21 00:52 | -5.56363 | -57.83723 | 36947 ft | 440 kts | 136° |
| 2026-04-21 00:53 | -5.60924 | -57.79611 | 36946 ft | 441 kts | 136° |
| 2026-04-21 00:53 | -5.65493 | -57.75492 | 36945 ft | 441 kts | 136° |
| 2026-04-21 00:54 | -5.70058 | -57.71374 | 36946 ft | 441 kts | 136° |
| 2026-04-21 00:54 | -5.74626 | -57.67253 | 36945 ft | 441 kts | 136° |
| 2026-04-21 00:55 | -5.79185 | -57.63138 | 36947 ft | 440 kts | 136° |
| 2026-04-21 00:55 | -5.83739 | -57.59028 | 36948 ft | 439 kts | 136° |
| 2026-04-21 00:56 | -5.88245 | -57.54960 | 36944 ft | 438 kts | 136° |
| 2026-04-21 00:56 | -5.92769 | -57.50875 | 36945 ft | 437 kts | 136° |
| 2026-04-21 00:57 | -5.97279 | -57.46801 | 36947 ft | 436 kts | 136° |
| 2026-04-21 00:57 | -6.01786 | -57.42729 | 36947 ft | 435 kts | 136° |
| 2026-04-21 00:58 | -6.06294 | -57.38656 | 36944 ft | 435 kts | 136° |
| 2026-04-21 00:58 | -6.10791 | -57.34591 | 36946 ft | 435 kts | 136° |
| 2026-04-21 00:59 | -6.15293 | -57.30521 | 36954 ft | 435 kts | 136° |
| 2026-04-21 00:59 | -6.19786 | -57.26457 | 36953 ft | 436 kts | 136° |
| 2026-04-21 01:00 | -6.24306 | -57.22369 | 36954 ft | 437 kts | 136° |
| 2026-04-21 01:00 | -6.28801 | -57.18302 | 36948 ft | 438 kts | 136° |
| 2026-04-21 01:01 | -6.33366 | -57.14171 | 36956 ft | 439 kts | 136° |
| 2026-04-21 01:01 | -6.37878 | -57.10086 | 36954 ft | 440 kts | 136° |
| 2026-04-21 01:02 | -6.42434 | -57.05962 | 36944 ft | 441 kts | 136° |
| 2026-04-21 01:02 | -6.46988 | -57.01837 | 36957 ft | 441 kts | 136° |
| 2026-04-21 01:03 | -6.51551 | -56.97704 | 36956 ft | 442 kts | 136° |
| 2026-04-21 01:03 | -6.56123 | -56.93561 | 36955 ft | 442 kts | 136° |
| 2026-04-21 01:04 | -6.60694 | -56.89418 | 36961 ft | 442 kts | 136° |
| 2026-04-21 01:04 | -6.65264 | -56.85276 | 36956 ft | 443 kts | 136° |
| 2026-04-21 01:05 | -6.69811 | -56.81152 | 36963 ft | 442 kts | 136° |
| 2026-04-21 01:05 | -6.74382 | -56.77006 | 36961 ft | 442 kts | 136° |
| 2026-04-21 01:06 | -6.78952 | -56.72860 | 36956 ft | 442 kts | 136° |
| 2026-04-21 01:06 | -6.83522 | -56.68712 | 36961 ft | 442 kts | 136° |
| 2026-04-21 01:07 | -6.88100 | -56.64557 | 36961 ft | 442 kts | 136° |
| 2026-04-21 01:07 | -6.92667 | -56.60409 | 36964 ft | 442 kts | 136° |
| 2026-04-21 01:08 | -6.96469 | -56.56956 | 36962 ft | 442 kts | 136° |
| 2026-04-21 01:08 | -7.01039 | -56.52805 | 36964 ft | 443 kts | 136° |
| 2026-04-21 01:09 | -7.05617 | -56.48645 | 36964 ft | 443 kts | 136° |
| 2026-04-21 01:09 | -7.10191 | -56.44487 | 36963 ft | 443 kts | 136° |
| 2026-04-21 01:10 | -7.14765 | -56.40327 | 36962 ft | 443 kts | 136° |
| 2026-04-21 01:10 | -7.19306 | -56.36196 | 36962 ft | 443 kts | 136° |
| 2026-04-21 01:11 | -7.23885 | -56.32029 | 36962 ft | 443 kts | 136° |
| 2026-04-21 01:11 | -7.28456 | -56.27870 | 36960 ft | 443 kts | 136° |
| 2026-04-21 01:12 | -7.33026 | -56.23709 | 36962 ft | 443 kts | 136° |
| 2026-04-21 01:12 | -7.37598 | -56.19545 | 36961 ft | 443 kts | 136° |
| 2026-04-21 01:13 | -7.42164 | -56.15382 | 36963 ft | 443 kts | 136° |
| 2026-04-21 01:13 | -7.46703 | -56.11243 | 36961 ft | 443 kts | 136° |
| 2026-04-21 01:14 | -7.51268 | -56.07079 | 36963 ft | 443 kts | 136° |
| 2026-04-21 01:14 | -7.55833 | -56.02914 | 36960 ft | 443 kts | 136° |
| 2026-04-21 01:15 | -7.60398 | -55.98748 | 36961 ft | 443 kts | 136° |
| 2026-04-21 01:15 | -7.64972 | -55.94572 | 36962 ft | 443 kts | 136° |
| 2026-04-21 01:16 | -7.69542 | -55.90398 | 36965 ft | 443 kts | 136° |
| 2026-04-21 01:16 | -7.74109 | -55.86226 | 36961 ft | 443 kts | 136° |
| 2026-04-21 01:17 | -7.78653 | -55.82074 | 36965 ft | 443 kts | 136° |
| 2026-04-21 01:17 | -7.83222 | -55.77898 | 36968 ft | 443 kts | 136° |
| 2026-04-21 01:18 | -7.87791 | -55.73720 | 36966 ft | 443 kts | 136° |
| 2026-04-21 01:18 | -7.92360 | -55.69541 | 36966 ft | 444 kts | 136° |
| 2026-04-21 01:19 | -7.96931 | -55.65358 | 36967 ft | 444 kts | 136° |
| 2026-04-21 01:19 | -8.01508 | -55.61170 | 36969 ft | 444 kts | 136° |
| 2026-04-21 01:20 | -8.06083 | -55.56982 | 36966 ft | 444 kts | 136° |
| 2026-04-21 01:20 | -8.10661 | -55.52789 | 36972 ft | 444 kts | 136° |
| 2026-04-21 01:21 | -8.15241 | -55.48593 | 36969 ft | 445 kts | 136° |
| 2026-04-21 01:21 | -8.19791 | -55.44423 | 36969 ft | 445 kts | 136° |
| 2026-04-21 01:22 | -8.24372 | -55.40224 | 36970 ft | 445 kts | 136° |
| 2026-04-21 01:22 | -8.28957 | -55.36019 | 36970 ft | 445 kts | 136° |
| 2026-04-21 01:23 | -8.33535 | -55.31820 | 36972 ft | 445 kts | 136° |
| 2026-04-21 01:23 | -8.38126 | -55.27607 | 36973 ft | 445 kts | 136° |
| 2026-04-21 01:24 | -8.42713 | -55.23397 | 36972 ft | 445 kts | 136° |
| 2026-04-21 01:24 | -8.47268 | -55.19215 | 36974 ft | 445 kts | 136° |
| 2026-04-21 01:25 | -8.51849 | -55.15007 | 36975 ft | 445 kts | 136° |
| 2026-04-21 01:25 | -8.56437 | -55.10791 | 36973 ft | 445 kts | 136° |
| 2026-04-21 01:26 | -8.61018 | -55.06581 | 36980 ft | 445 kts | 136° |
| 2026-04-21 01:26 | -8.65602 | -55.02365 | 36978 ft | 445 kts | 136° |
| 2026-04-21 01:27 | -8.70159 | -54.98175 | 36979 ft | 445 kts | 136° |
| 2026-04-21 01:27 | -8.74737 | -54.93962 | 36981 ft | 445 kts | 136° |
| 2026-04-21 01:28 | -8.79318 | -54.89746 | 36981 ft | 445 kts | 136° |
| 2026-04-21 01:28 | -8.83900 | -54.85527 | 36985 ft | 445 kts | 136° |
| 2026-04-21 01:29 | -8.88482 | -54.81307 | 36985 ft | 446 kts | 136° |
| 2026-04-21 01:29 | -8.93065 | -54.77083 | 36985 ft | 446 kts | 136° |
| 2026-04-21 01:30 | -8.97653 | -54.72855 | 36987 ft | 446 kts | 136° |
| 2026-04-21 01:30 | -9.02247 | -54.68618 | 36988 ft | 446 kts | 136° |
| 2026-04-21 01:31 | -9.06836 | -54.64384 | 36986 ft | 446 kts | 136° |
| 2026-04-21 01:31 | -9.11422 | -54.60152 | 36983 ft | 446 kts | 137° |
| 2026-04-21 01:32 | -9.15986 | -54.55939 | 36983 ft | 446 kts | 137° |
| 2026-04-21 01:32 | -9.20495 | -54.51625 | 36986 ft | 446 kts | 135° |
| 2026-04-21 01:33 | -9.24891 | -54.47181 | 36979 ft | 445 kts | 134° |
| 2026-04-21 01:33 | -9.29275 | -54.42744 | 36981 ft | 445 kts | 134° |
| 2026-04-21 01:34 | -9.33664 | -54.38333 | 36979 ft | 445 kts | 135° |
| 2026-04-21 01:34 | -9.38065 | -54.33925 | 36978 ft | 444 kts | 135° |
| 2026-04-21 01:35 | -9.42429 | -54.29554 | 36979 ft | 443 kts | 135° |
| 2026-04-21 01:35 | -9.46812 | -54.25162 | 36976 ft | 443 kts | 135° |
| 2026-04-21 01:36 | -9.51216 | -54.20747 | 36978 ft | 442 kts | 135° |
| 2026-04-21 01:36 | -9.55557 | -54.16393 | 36979 ft | 442 kts | 135° |
| 2026-04-21 01:37 | -9.59924 | -54.12011 | 36977 ft | 441 kts | 135° |
| 2026-04-21 01:37 | -9.64279 | -54.07639 | 36978 ft | 441 kts | 135° |
| 2026-04-21 01:38 | -9.68637 | -54.03263 | 36978 ft | 441 kts | 135° |
| 2026-04-21 01:38 | -9.73001 | -53.98879 | 36976 ft | 441 kts | 135° |
| 2026-04-21 01:39 | -9.77362 | -53.94496 | 36980 ft | 441 kts | 135° |
| 2026-04-21 01:39 | -9.81692 | -53.90142 | 36977 ft | 441 kts | 135° |
| 2026-04-21 01:40 | -9.86053 | -53.85756 | 36978 ft | 441 kts | 135° |
| 2026-04-21 01:40 | -9.90478 | -53.81438 | 36978 ft | 442 kts | 137° |
| 2026-04-21 01:41 | -9.95022 | -53.77219 | 36981 ft | 442 kts | 137° |
| 2026-04-21 01:41 | -9.99565 | -53.72997 | 36977 ft | 443 kts | 137° |
| 2026-04-21 01:42 | -10.04099 | -53.68751 | 36980 ft | 444 kts | 137° |
| 2026-04-21 01:42 | -10.08628 | -53.64494 | 36977 ft | 444 kts | 137° |
| 2026-04-21 01:43 | -10.13130 | -53.60260 | 36976 ft | 444 kts | 137° |
| 2026-04-21 01:43 | -10.17667 | -53.55992 | 36973 ft | 445 kts | 137° |
| 2026-04-21 01:44 | -10.22206 | -53.51722 | 36977 ft | 444 kts | 137° |
| 2026-04-21 01:44 | -10.26743 | -53.47451 | 36974 ft | 444 kts | 137° |
| 2026-04-21 01:45 | -10.31277 | -53.43181 | 36971 ft | 444 kts | 137° |
| 2026-04-21 01:45 | -10.35809 | -53.38912 | 36972 ft | 444 kts | 137° |
| 2026-04-21 01:46 | -10.40307 | -53.34666 | 36976 ft | 444 kts | 137° |
| 2026-04-21 01:46 | -10.44826 | -53.30396 | 36973 ft | 443 kts | 137° |
| 2026-04-21 01:47 | -10.49340 | -53.26128 | 36972 ft | 443 kts | 137° |
| 2026-04-21 01:47 | -10.53853 | -53.21858 | 36971 ft | 443 kts | 137° |
| 2026-04-21 01:48 | -10.58375 | -53.17580 | 36972 ft | 443 kts | 137° |
| 2026-04-21 01:48 | -10.62886 | -53.13309 | 36972 ft | 443 kts | 137° |
| 2026-04-21 01:49 | -10.67401 | -53.09032 | 36977 ft | 444 kts | 137° |
| 2026-04-21 01:49 | -10.71921 | -53.04750 | 36976 ft | 444 kts | 138° |
| 2026-04-21 01:50 | -10.76449 | -53.00457 | 36975 ft | 445 kts | 138° |
| 2026-04-21 01:50 | -10.80948 | -52.96191 | 36974 ft | 445 kts | 138° |
| 2026-04-21 01:51 | -10.85485 | -52.91887 | 36975 ft | 446 kts | 138° |
| 2026-04-21 01:51 | -10.90022 | -52.87581 | 36973 ft | 446 kts | 138° |
| 2026-04-21 01:52 | -10.96826 | -52.81119 | 36973 ft | 446 kts | 138° |
| 2026-04-21 01:53 | -11.01364 | -52.76807 | 36974 ft | 446 kts | 138° |
| 2026-04-21 01:53 | -11.05897 | -52.72498 | 36971 ft | 446 kts | 138° |
| 2026-04-21 01:54 | -11.10396 | -52.68219 | 36972 ft | 445 kts | 138° |
| 2026-04-21 01:54 | -11.14911 | -52.63923 | 36975 ft | 444 kts | 138° |
| 2026-04-21 01:55 | -11.19426 | -52.59625 | 36973 ft | 444 kts | 138° |
| 2026-04-21 01:55 | -11.23937 | -52.55329 | 36973 ft | 443 kts | 138° |
| 2026-04-21 01:56 | -11.28433 | -52.51046 | 36976 ft | 442 kts | 138° |
| 2026-04-21 01:56 | -11.32923 | -52.46766 | 36974 ft | 441 kts | 138° |
| 2026-04-21 01:57 | -11.37379 | -52.42516 | 36978 ft | 441 kts | 138° |
| 2026-04-21 01:57 | -11.41855 | -52.38245 | 36971 ft | 441 kts | 139° |
| 2026-04-21 01:58 | -11.46332 | -52.33971 | 36971 ft | 440 kts | 139° |
| 2026-04-21 01:58 | -11.50802 | -52.29702 | 36977 ft | 440 kts | 139° |
| 2026-04-21 01:59 | -11.55315 | -52.25471 | 36975 ft | 440 kts | 141° |
| 2026-04-21 01:59 | -11.59195 | -52.22107 | 36976 ft | 440 kts | 142° |
| 2026-04-21 02:00 | -11.63886 | -52.18098 | 36971 ft | 441 kts | 142° |
| 2026-04-21 02:00 | -11.68573 | -52.14056 | 36979 ft | 441 kts | 141° |
| 2026-04-21 02:01 | -11.73240 | -52.10001 | 36976 ft | 441 kts | 141° |
| 2026-04-21 02:01 | -11.77915 | -52.05928 | 36975 ft | 442 kts | 141° |
| 2026-04-21 02:02 | -11.82585 | -52.01857 | 36977 ft | 442 kts | 141° |
| 2026-04-21 02:02 | -11.87259 | -51.97781 | 36972 ft | 442 kts | 141° |
| 2026-04-21 02:03 | -11.91927 | -51.93708 | 36978 ft | 441 kts | 141° |
| 2026-04-21 02:03 | -11.96597 | -51.89633 | 36976 ft | 441 kts | 141° |
| 2026-04-21 02:04 | -12.00471 | -51.86250 | 36970 ft | 441 kts | 142° |
| 2026-04-21 02:04 | -12.06580 | -51.80914 | 36971 ft | 440 kts | 142° |
| 2026-04-21 02:05 | -12.10475 | -51.77510 | 36969 ft | 440 kts | 142° |
| 2026-04-21 02:05 | -12.15124 | -51.73445 | 36968 ft | 439 kts | 142° |
| 2026-04-21 02:06 | -12.19767 | -51.69383 | 36965 ft | 439 kts | 142° |
| 2026-04-21 02:06 | -12.24371 | -51.65354 | 36968 ft | 438 kts | 142° |
| 2026-04-21 02:07 | -12.29005 | -51.61296 | 36965 ft | 438 kts | 142° |
| 2026-04-21 02:07 | -12.33634 | -51.57241 | 36970 ft | 438 kts | 142° |
| 2026-04-21 02:08 | -12.38263 | -51.53182 | 36963 ft | 438 kts | 142° |
| 2026-04-21 02:08 | -12.42888 | -51.49126 | 36969 ft | 438 kts | 142° |
| 2026-04-21 02:09 | -12.47522 | -51.45060 | 36962 ft | 438 kts | 142° |
| 2026-04-21 02:09 | -12.52119 | -51.41025 | 36960 ft | 439 kts | 142° |
| 2026-04-21 02:10 | -12.56668 | -51.36837 | 36958 ft | 440 kts | 140° |
| 2026-04-21 02:10 | -12.61120 | -51.32535 | 36957 ft | 440 kts | 139° |
| 2026-04-21 02:11 | -12.65571 | -51.28238 | 36953 ft | 440 kts | 140° |
| 2026-04-21 02:11 | -12.70043 | -51.23950 | 36951 ft | 440 kts | 140° |
| 2026-04-21 02:12 | -12.74518 | -51.19671 | 36952 ft | 440 kts | 140° |
| 2026-04-21 02:12 | -12.79005 | -51.15380 | 36949 ft | 440 kts | 140° |
| 2026-04-21 02:13 | -12.83456 | -51.11121 | 36951 ft | 440 kts | 140° |
| 2026-04-21 02:13 | -12.87934 | -51.06834 | 36947 ft | 440 kts | 140° |
| 2026-04-21 02:14 | -12.92408 | -51.02548 | 36946 ft | 440 kts | 140° |
| 2026-04-21 02:14 | -12.96881 | -50.98260 | 36951 ft | 440 kts | 140° |
| 2026-04-21 02:15 | -13.01351 | -50.93973 | 36950 ft | 440 kts | 140° |
| 2026-04-21 02:15 | -13.05828 | -50.89677 | 36946 ft | 440 kts | 140° |
| 2026-04-21 02:16 | -13.10299 | -50.85385 | 36943 ft | 440 kts | 140° |
| 2026-04-21 02:16 | -13.14771 | -50.81090 | 36943 ft | 440 kts | 140° |
| 2026-04-21 02:17 | -13.19247 | -50.76788 | 36942 ft | 440 kts | 140° |
| 2026-04-21 02:17 | -13.23715 | -50.72490 | 36944 ft | 440 kts | 140° |
| 2026-04-21 02:18 | -13.28160 | -50.68214 | 36943 ft | 441 kts | 140° |
| 2026-04-21 02:18 | -13.32663 | -50.63952 | 36938 ft | 439 kts | 143° |
| 2026-04-21 02:19 | -13.37417 | -50.60014 | 36945 ft | 438 kts | 146° |
| 2026-04-21 02:19 | -13.42235 | -50.56173 | 36945 ft | 438 kts | 146° |
| 2026-04-21 02:20 | -13.47036 | -50.52309 | 36942 ft | 438 kts | 145° |
| 2026-04-21 02:20 | -13.51822 | -50.48416 | 36943 ft | 438 kts | 145° |
| 2026-04-21 02:21 | -13.56597 | -50.44517 | 36940 ft | 438 kts | 145° |
| 2026-04-21 02:21 | -13.61342 | -50.40638 | 36947 ft | 438 kts | 145° |
| 2026-04-21 02:22 | -13.66115 | -50.36734 | 36942 ft | 438 kts | 145° |
| 2026-04-21 02:22 | -13.70880 | -50.32836 | 36943 ft | 438 kts | 145° |
| 2026-04-21 02:23 | -13.75649 | -50.28933 | 36942 ft | 437 kts | 145° |
| 2026-04-21 02:23 | -13.80420 | -50.25026 | 36942 ft | 437 kts | 145° |
| 2026-04-21 02:24 | -13.85177 | -50.21129 | 36942 ft | 437 kts | 145° |
| 2026-04-21 02:24 | -13.89932 | -50.17231 | 36943 ft | 437 kts | 145° |
| 2026-04-21 02:25 | -13.94653 | -50.13359 | 36943 ft | 437 kts | 145° |
| 2026-04-21 02:25 | -13.99415 | -50.09451 | 36945 ft | 437 kts | 145° |
| 2026-04-21 02:26 | -14.04167 | -50.05549 | 36944 ft | 437 kts | 145° |
| 2026-04-21 02:26 | -14.08915 | -50.01648 | 36945 ft | 437 kts | 145° |
| 2026-04-21 02:27 | -14.13667 | -49.97742 | 36947 ft | 436 kts | 145° |
| 2026-04-21 02:27 | -14.18411 | -49.93840 | 36946 ft | 436 kts | 145° |
| 2026-04-21 02:28 | -14.23156 | -49.89935 | 36950 ft | 436 kts | 145° |
| 2026-04-21 02:28 | -14.27903 | -49.86027 | 36949 ft | 437 kts | 145° |
| 2026-04-21 02:29 | -14.32645 | -49.82119 | 36948 ft | 436 kts | 145° |
| 2026-04-21 02:29 | -14.37390 | -49.78208 | 36950 ft | 436 kts | 145° |
| 2026-04-21 02:30 | -14.42130 | -49.74299 | 36956 ft | 436 kts | 145° |
| 2026-04-21 02:30 | -14.46839 | -49.70413 | 36960 ft | 436 kts | 145° |
| 2026-04-21 02:31 | -14.51602 | -49.66481 | 36449 ft | 441 kts | 145° |
| 2026-04-21 02:31 | -14.53978 | -49.64517 | 36090 ft | 436 kts | 145° |
| 2026-04-21 02:31 | -14.56332 | -49.62570 | 35665 ft | 432 kts | 145° |
| 2026-04-21 02:31 | -14.58673 | -49.60634 | 35239 ft | 429 kts | 145° |
| 2026-04-21 02:32 | -14.60996 | -49.58713 | 34817 ft | 427 kts | 145° |
| 2026-04-21 02:32 | -14.63311 | -49.56799 | 34382 ft | 425 kts | 145° |
| 2026-04-21 02:32 | -14.65613 | -49.54895 | 33956 ft | 423 kts | 145° |
| 2026-04-21 02:32 | -14.67880 | -49.52972 | 33473 ft | 423 kts | 140° |
| 2026-04-21 02:33 | -14.69725 | -49.50588 | 33029 ft | 428 kts | 123° |
| 2026-04-21 02:33 | -14.70940 | -49.47773 | 32641 ft | 429 kts | 115° |
| 2026-04-21 02:33 | -14.71972 | -49.44886 | 32227 ft | 428 kts | 114° |
| 2026-04-21 02:33 | -14.72967 | -49.41996 | 31817 ft | 426 kts | 114° |
| 2026-04-21 02:34 | -14.73962 | -49.39123 | 31403 ft | 424 kts | 114° |
| 2026-04-21 02:34 | -14.74969 | -49.36271 | 30991 ft | 422 kts | 114° |
| 2026-04-21 02:34 | -14.75986 | -49.33435 | 30589 ft | 420 kts | 114° |
| 2026-04-21 02:34 | -14.77011 | -49.30604 | 30171 ft | 419 kts | 114° |
| 2026-04-21 02:35 | -14.78019 | -49.27829 | 29728 ft | 417 kts | 114° |
| 2026-04-21 02:35 | -14.79036 | -49.25027 | 29292 ft | 414 kts | 114° |
| 2026-04-21 02:35 | -14.80042 | -49.22254 | 28860 ft | 411 kts | 114° |
| 2026-04-21 02:35 | -14.81043 | -49.19492 | 28444 ft | 408 kts | 114° |
| 2026-04-21 02:36 | -14.82056 | -49.16760 | 28021 ft | 405 kts | 114° |
| 2026-04-21 02:36 | -14.83074 | -49.14055 | 27619 ft | 402 kts | 114° |
| 2026-04-21 02:36 | -14.84089 | -49.11374 | 27216 ft | 400 kts | 114° |
| 2026-04-21 02:36 | -14.85096 | -49.08712 | 26816 ft | 397 kts | 114° |
| 2026-04-21 02:37 | -14.86097 | -49.06061 | 26425 ft | 395 kts | 114° |
| 2026-04-21 02:37 | -14.87093 | -49.03417 | 26017 ft | 393 kts | 114° |
| 2026-04-21 02:37 | -14.88078 | -49.00796 | 25606 ft | 391 kts | 114° |
| 2026-04-21 02:37 | -14.89062 | -48.98176 | 25211 ft | 389 kts | 114° |
| 2026-04-21 02:38 | -14.90040 | -48.95572 | 24802 ft | 388 kts | 114° |
| 2026-04-21 02:38 | -14.91015 | -48.92973 | 24402 ft | 387 kts | 113° |
| 2026-04-21 02:38 | -14.91980 | -48.90398 | 23997 ft | 386 kts | 113° |
| 2026-04-21 02:38 | -14.92950 | -48.87810 | 23602 ft | 385 kts | 113° |
| 2026-04-21 02:39 | -14.93915 | -48.85234 | 23140 ft | 384 kts | 113° |
| 2026-04-21 02:39 | -14.94878 | -48.82662 | 22718 ft | 381 kts | 113° |
| 2026-04-21 02:39 | -14.95830 | -48.80118 | 22319 ft | 378 kts | 112° |
| 2026-04-21 02:39 | -14.96776 | -48.77589 | 21920 ft | 376 kts | 112° |
| 2026-04-21 02:40 | -14.97715 | -48.75078 | 21530 ft | 373 kts | 112° |
| 2026-04-21 02:40 | -14.98648 | -48.72582 | 21147 ft | 371 kts | 112° |
| 2026-04-21 02:40 | -14.99576 | -48.70100 | 20756 ft | 368 kts | 112° |
| 2026-04-21 02:40 | -15.00495 | -48.67642 | 20376 ft | 366 kts | 112° |
| 2026-04-21 02:41 | -15.01412 | -48.65187 | 19993 ft | 364 kts | 112° |
| 2026-04-21 02:41 | -15.02660 | -48.62935 | 19588 ft | 361 kts | 131° |
| 2026-04-21 02:41 | -15.04545 | -48.61262 | 19193 ft | 357 kts | 150° |
| 2026-04-21 02:41 | -15.06732 | -48.60057 | 18830 ft | 355 kts | 154° |
| 2026-04-21 02:42 | -15.08945 | -48.58928 | 18450 ft | 354 kts | 154° |
| 2026-04-21 02:42 | -15.11163 | -48.57815 | 18036 ft | 354 kts | 154° |
| 2026-04-21 02:42 | -15.13373 | -48.56703 | 17630 ft | 351 kts | 154° |
| 2026-04-21 02:42 | -15.15553 | -48.55595 | 17257 ft | 349 kts | 154° |
| 2026-04-21 02:43 | -15.17715 | -48.54488 | 16879 ft | 342 kts | 154° |
| 2026-04-21 02:43 | -15.19821 | -48.53403 | 16518 ft | 332 kts | 153° |
| 2026-04-21 02:43 | -15.21845 | -48.52357 | 16181 ft | 328 kts | 153° |
| 2026-04-21 02:43 | -15.23880 | -48.51303 | 15838 ft | 327 kts | 153° |
| 2026-04-21 02:44 | -15.25915 | -48.50247 | 15499 ft | 325 kts | 153° |
| 2026-04-21 02:44 | -15.27932 | -48.49200 | 15161 ft | 324 kts | 153° |
| 2026-04-21 02:44 | -15.29946 | -48.48154 | 14817 ft | 322 kts | 153° |
| 2026-04-21 02:44 | -15.31946 | -48.47115 | 14463 ft | 322 kts | 153° |
| 2026-04-21 02:45 | -15.33948 | -48.46075 | 14123 ft | 321 kts | 153° |
| 2026-04-21 02:45 | -15.35940 | -48.45039 | 13767 ft | 320 kts | 153° |
| 2026-04-21 02:45 | -15.37924 | -48.44008 | 13373 ft | 319 kts | 153° |
| 2026-04-21 02:45 | -15.39881 | -48.42990 | 13032 ft | 317 kts | 153° |
| 2026-04-21 02:46 | -15.41874 | -48.41953 | 12667 ft | 315 kts | 153° |
| 2026-04-21 02:46 | -15.43801 | -48.40951 | 12334 ft | 313 kts | 153° |
| 2026-04-21 02:46 | -15.45743 | -48.39940 | 11993 ft | 311 kts | 152° |
| 2026-04-21 02:46 | -15.47672 | -48.38936 | 11664 ft | 309 kts | 152° |
| 2026-04-21 02:47 | -15.49588 | -48.37938 | 11324 ft | 307 kts | 152° |
| 2026-04-21 02:47 | -15.51493 | -48.36946 | 10997 ft | 306 kts | 152° |
| 2026-04-21 02:47 | -15.53386 | -48.35960 | 10667 ft | 304 kts | 152° |
| 2026-04-21 02:47 | -15.55264 | -48.34982 | 10337 ft | 298 kts | 152° |
| 2026-04-21 02:48 | -15.57082 | -48.34036 | 10103 ft | 286 kts | 152° |
| 2026-04-21 02:48 | -15.58819 | -48.33132 | 9942 ft | 272 kts | 152° |
| 2026-04-21 02:48 | -15.60472 | -48.32275 | 9765 ft | 268 kts | 152° |
| 2026-04-21 02:48 | -15.62141 | -48.31416 | 9599 ft | 270 kts | 152° |
| 2026-04-21 02:49 | -15.63836 | -48.30545 | 9436 ft | 271 kts | 152° |
| 2026-04-21 02:49 | -15.65532 | -48.29673 | 9271 ft | 273 kts | 152° |
| 2026-04-21 02:49 | -15.67232 | -48.28798 | 9093 ft | 273 kts | 152° |
| 2026-04-21 02:49 | -15.68914 | -48.27933 | 8915 ft | 267 kts | 152° |
| 2026-04-21 02:50 | -15.70565 | -48.27083 | 8752 ft | 261 kts | 152° |
| 2026-04-21 02:50 | -15.72179 | -48.26252 | 8590 ft | 256 kts | 152° |
| 2026-04-21 02:50 | -15.73759 | -48.25439 | 8440 ft | 251 kts | 152° |
| 2026-04-21 02:50 | -15.75307 | -48.24641 | 8295 ft | 246 kts | 152° |
| 2026-04-21 02:51 | -15.76820 | -48.23862 | 8177 ft | 238 kts | 152° |
| 2026-04-21 02:51 | -15.78258 | -48.23122 | 8015 ft | 223 kts | 152° |
| 2026-04-21 02:51 | -15.79703 | -48.22646 | 7863 ft | 215 kts | 171° |
| 2026-04-21 02:51 | -15.81167 | -48.22479 | 7755 ft | 213 kts | 171° |
| 2026-04-21 02:52 | -15.82655 | -48.22292 | 7629 ft | 212 kts | 170° |
| 2026-04-21 02:52 | -15.84091 | -48.22072 | 7509 ft | 211 kts | 161° |
| 2026-04-21 02:52 | -15.85271 | -48.21249 | 7368 ft | 204 kts | 126° |
| 2026-04-21 02:52 | -15.85974 | -48.19991 | 7275 ft | 201 kts | 115° |
| 2026-04-21 02:53 | -15.86566 | -48.18672 | 7159 ft | 202 kts | 114° |
| 2026-04-21 02:53 | -15.87156 | -48.17346 | 7031 ft | 202 kts | 114° |
| 2026-04-21 02:53 | -15.87711 | -48.16005 | 6906 ft | 202 kts | 104° |
| 2026-04-21 02:53 | -15.87808 | -48.15044 | 6828 ft | 202 kts | 89° |
| 2026-04-21 02:54 | -15.87727 | -48.13590 | 6727 ft | 202 kts | 86° |
| 2026-04-21 02:54 | -15.87617 | -48.12147 | 6607 ft | 199 kts | 86° |
| 2026-04-21 02:54 | -15.87517 | -48.10727 | 6484 ft | 195 kts | 87° |
| 2026-04-21 02:54 | -15.87427 | -48.09361 | 6361 ft | 184 kts | 86° |
| 2026-04-21 02:55 | -15.87344 | -48.08086 | 6266 ft | 171 kts | 86° |
| 2026-04-21 02:55 | -15.87244 | -48.06543 | 6011 ft | 154 kts | 87° |
| 2026-04-21 02:55 | -15.87196 | -48.05799 | 5889 ft | 151 kts | 86° |
| 2026-04-21 02:55 | -15.87125 | -48.04703 | 5704 ft | 153 kts | 87° |
| 2026-04-21 02:56 | -15.87053 | -48.03595 | 5507 ft | 153 kts | 87° |
| 2026-04-21 02:56 | -15.86912 | -48.01402 | 5139 ft | 152 kts | 86° |
| 2026-04-21 02:56 | -15.86840 | -48.00302 | 4948 ft | 152 kts | 87° |
| 2026-04-21 02:57 | -15.86770 | -47.99206 | 4746 ft | 151 kts | 86° |
| 2026-04-21 02:57 | -15.86701 | -47.98125 | 4557 ft | 154 kts | 87° |
| 2026-04-21 02:57 | -15.86628 | -47.97000 | 4352 ft | 158 kts | 87° |
| 2026-04-21 02:57 | -15.86555 | -47.95857 | 4138 ft | 159 kts | 87° |
| 2026-04-21 02:58 | -15.86481 | -47.94705 | 3913 ft | 159 kts | 87° |
| 2026-04-21 02:58 | -15.86408 | -47.93560 | 3688 ft | 158 kts | 86° |
| 2026-04-21 02:58 | -15.86335 | -47.92421 | 3479 ft | 158 kts | 87° |
| 2026-04-21 02:58 | -15.86271 | -47.91415 | 3463 ft | 111 kts | 86° |
| 2026-04-21 02:59 | -15.86241 | -47.90946 | 3475 ft | 25 kts | 88° |
| 2026-04-21 02:59 | -15.86288 | -47.90815 | 3477 ft | 11 kts | 129° |
| 2026-04-21 02:59 | -15.86339 | -47.90752 | 3482 ft | 11 kts | 130° |
| 2026-04-21 02:59 | -15.86400 | -47.90716 | 3434 ft | 11 kts | 199° |
| 2026-04-21 03:00 | -15.86422 | -47.90786 | 3482 ft | 11 kts | 265° |
| 2026-04-21 03:00 | -15.86429 | -47.90864 | 3480 ft | 11 kts | 264° |
| 2026-04-21 03:00 | -15.86435 | -47.90954 | 3474 ft | 14 kts | 266° |
| 2026-04-21 03:00 | -15.86441 | -47.91061 | 3471 ft | 16 kts | 266° |
| 2026-04-21 03:01 | -15.86449 | -47.91179 | 3469 ft | 16 kts | 266° |
| 2026-04-21 03:01 | -15.86456 | -47.91293 | 3468 ft | 16 kts | 266° |
| 2026-04-21 03:01 | -15.86463 | -47.91403 | 3466 ft | 15 kts | 266° |
| 2026-04-21 03:01 | -15.86470 | -47.91510 | 3464 ft | 15 kts | 266° |
| 2026-04-21 03:02 | -15.86477 | -47.91612 | 3464 ft | 14 kts | 265° |
| 2026-04-21 03:02 | -15.86483 | -47.91708 | 3466 ft | 13 kts | 266° |
| 2026-04-21 03:02 | -15.86494 | -47.91794 | 3467 ft | 11 kts | 240° |
| 2026-04-21 03:02 | -15.86566 | -47.91811 | 3469 ft | 11 kts | 176° |
| 2026-04-21 03:03 | -15.86613 | -47.91837 | 3469 ft | 7 kts | 232° |
| 2026-04-21 03:03 | -15.86660 | -47.91847 | 3471 ft | 7 kts | 177° |
| 2026-04-21 03:03 | -15.86695 | -47.91844 | 3470 ft | 3 kts | 176° |
| 2026-04-21 03:03 | -15.86707 | -47.91844 | 3471 ft | 0 kts | 176° |